Time;durP1;ratioP1;P1;durP2;ratioP2;P2;SDS_P1;SDS_P2;PMS_P1;PMS_P2;Temp;Humidity;BMP_temperature;BMP_pressure;BME280_temperature;BME280_humidity;BME280_pressure;Samples;Min_cycle;Max_cycle;Signal;HPM_P1;HPM_P2
2022/05/10 00:02:03;;;;;;;13.90;11.30;;;;;;;10.60;83.58;97986.79;109995;1250;68986;-70
2022/05/10 00:04:34;;;;;;;16.90;11.70;;;;;;;10.54;85.41;97982.83;109946;1250;59665;-71
2022/05/10 00:07:05;;;;;;;16.90;12.50;;;;;;;10.51;84.93;97985.33;109928;1250;59653;-70
2022/05/10 00:09:35;;;;;;;15.10;11.20;;;;;;;10.47;85.56;97984.02;109900;1251;71340;-73
2022/05/10 00:12:07;;;;;;;14.40;11.50;;;;;;;10.43;84.90;97979.88;109947;1250;67913;-70
2022/05/10 00:14:40;;;;;;;18.00;14.40;;;;;;;10.40;85.21;97983.03;109822;1249;68688;-69
2022/05/10 00:17:25;;;;;;;16.10;12.00;;;;;;;10.38;85.76;97979.31;109987;1250;59744;-71
2022/05/10 00:19:58;;;;;;;16.30;13.60;;;;;;;10.35;86.12;97972.89;109918;1250;59727;-72
2022/05/10 00:22:28;;;;;;;17.10;11.90;;;;;;;10.35;86.86;97971.85;109919;1250;70796;-71
2022/05/10 00:24:59;;;;;;;15.30;11.50;;;;;;;10.36;86.67;97967.45;109859;1250;68607;-71
2022/05/10 00:27:30;;;;;;;15.70;11.80;;;;;;;10.35;86.96;97965.41;110017;1250;68639;-70
2022/05/10 00:30:00;;;;;;;14.70;10.80;;;;;;;10.34;87.21;97965.30;109981;1249;59735;-72
2022/05/10 00:32:35;;;;;;;12.60;9.50;;;;;;;10.33;86.45;97964.13;109962;1251;59712;-70
2022/05/10 00:35:15;;;;;;;12.10;9.80;;;;;;;10.33;86.16;97963.08;109749;1251;70602;-73
2022/05/10 00:37:49;;;;;;;14.70;12.20;;;;;;;10.31;85.01;97962.91;109951;1250;68661;-71
2022/05/10 00:40:25;;;;;;;12.40;9.00;;;;;;;10.26;85.50;97960.89;109745;1250;68838;-71
2022/05/10 00:43:20;;;;;;;11.60;8.70;;;;;;;10.25;85.26;97959.44;109858;1249;59738;-69
2022/05/10 00:46:06;;;;;;;12.80;10.70;;;;;;;10.21;85.46;97954.04;109976;1250;59660;-69
2022/05/10 00:49:12;;;;;;;14.00;10.20;;;;;;;10.19;87.33;97950.00;109894;1250;71367;-69
2022/05/10 00:51:53;;;;;;;12.50;10.70;;;;;;;10.16;86.06;97947.05;109853;1250;68614;-70
2022/05/10 00:54:28;;;;;;;13.90;9.80;;;;;;;10.16;87.18;97945.31;109926;1249;69276;-69
2022/05/10 00:57:02;;;;;;;13.70;10.40;;;;;;;10.14;85.16;97943.18;109990;1250;59776;-73
2022/05/10 00:59:56;;;;;;;14.70;10.80;;;;;;;10.12;85.09;97942.58;110232;1248;59667;-69
2022/05/10 01:03:03;;;;;;;13.30;9.20;;;;;;;10.11;86.88;97944.23;109980;1250;71623;-72
2022/05/10 01:05:43;;;;;;;12.10;8.60;;;;;;;10.05;87.32;97944.77;109759;1251;68620;-71
2022/05/10 01:08:17;;;;;;;10.20;8.10;;;;;;;10.00;87.10;97940.55;109784;1251;68676;-70
2022/05/10 01:10:55;;;;;;;9.30;8.10;;;;;;;9.96;85.71;97937.84;110059;1248;59736;-70
2022/05/10 01:13:31;;;;;;;11.70;7.90;;;;;;;9.93;85.15;97934.20;110138;1250;59617;-70
2022/05/10 01:16:06;;;;;;;11.80;9.40;;;;;;;9.92;83.89;97933.38;109831;1250;70758;-68
2022/05/10 01:18:39;;;;;;;11.40;7.40;;;;;;;9.90;83.80;97935.42;109846;1250;67690;-69
2022/05/10 01:21:39;;;;;;;14.80;10.50;;;;;;;9.88;83.45;97937.27;110075;1249;69261;-69
2022/05/10 01:24:21;;;;;;;15.90;12.50;;;;;;;9.87;85.87;97938.79;110022;1250;60094;-68
2022/05/10 01:27:15;;;;;;;14.80;11.80;;;;;;;9.85;86.70;97938.56;109945;1250;59682;-72
2022/05/10 01:29:58;;;;;;;14.90;9.80;;;;;;;9.83;85.74;97938.27;110062;1249;71565;-74
2022/05/10 01:35:43;;;;;;;13.70;10.30;;;;;;;9.85;83.42;97936.99;110221;1247;69766;-70
2022/05/10 01:38:37;;;;;;;10.90;8.70;;;;;;;9.85;83.25;97940.45;110101;1250;59694;-68
2022/05/10 01:41:32;;;;;;;11.30;8.80;;;;;;;9.84;86.63;97935.63;110061;1249;59722;-70
2022/05/10 01:44:11;;;;;;;11.30;8.50;;;;;;;9.80;87.19;97937.25;110095;1250;70576;-70
2022/05/10 01:46:46;;;;;;;11.50;8.90;;;;;;;9.79;88.11;97938.39;110073;1249;68379;-69
2022/05/10 01:49:44;;;;;;;11.70;9.60;;;;;;;9.80;88.71;97935.73;110047;1250;69397;-72
2022/05/10 01:52:39;;;;;;;13.00;10.10;;;;;;;9.83;88.61;97936.41;110059;1250;59661;-73
2022/05/10 01:55:26;;;;;;;12.30;8.10;;;;;;;9.84;87.93;97934.61;110209;1248;59687;-71
2022/05/10 01:58:03;;;;;;;10.80;8.60;;;;;;;9.85;86.68;97932.27;110061;1249;71640;-73
2022/05/10 02:00:36;;;;;;;10.20;7.60;;;;;;;9.86;84.82;97925.95;109906;1250;68608;-70
2022/05/10 02:03:11;;;;;;;10.10;7.40;;;;;;;9.85;83.80;97930.16;109815;1250;69439;-72
2022/05/10 02:05:54;;;;;;;9.80;8.00;;;;;;;9.84;83.14;97927.79;109995;1250;59768;-71
2022/05/10 02:08:44;;;;;;;11.90;9.90;;;;;;;9.81;82.85;97929.37;110042;1249;59765;-70
2022/05/10 02:11:18;;;;;;;12.00;9.40;;;;;;;9.79;85.22;97928.13;110020;1250;71523;-69
2022/05/10 02:13:52;;;;;;;;;;;;;;;9.78;87.31;97931.82;109887;1250;67432;-69
2022/05/10 02:16:29;;;;;;;13.10;9.30;;;;;;;9.75;87.77;97928.34;109911;1250;69426;-69
2022/05/10 02:19:04;;;;;;;13.90;10.20;;;;;;;9.75;88.40;97928.71;109811;1250;59737;-71
2022/05/10 02:21:50;;;;;;;15.70;10.30;;;;;;;9.72;88.36;97927.32;110092;1249;59656;-71
2022/05/10 02:24:48;;;;;;;12.70;9.40;;;;;;;9.70;88.66;97924.80;109980;1250;71490;-70
2022/05/10 02:27:39;;;;;;;12.10;10.30;;;;;;;9.71;88.95;97919.90;109964;1250;68562;-70
2022/05/10 02:30:16;;;;;;;11.30;8.40;;;;;;;9.74;88.62;97922.36;109956;1250;68729;-69
2022/05/10 02:33:07;;;;;;;9.60;6.60;;;;;;;9.75;88.23;97917.58;110223;1248;59728;-69
2022/05/10 02:35:57;;;;;;;13.00;9.70;;;;;;;9.77;88.00;97916.60;109977;1250;59681;-69
2022/05/10 02:38:38;;;;;;;12.80;9.40;;;;;;;9.79;88.72;97915.07;110155;1248;70572;-70
2022/05/10 02:41:19;;;;;;;12.40;10.00;;;;;;;9.78;89.27;97913.35;109952;1248;68582;-72
2022/05/10 02:43:54;;;;;;;14.70;9.10;;;;;;;9.78;89.27;97910.75;109804;1250;68661;-70
2022/05/10 02:46:27;;;;;;;11.50;8.20;;;;;;;9.78;89.34;97910.77;110148;1247;59742;-70
2022/05/10 02:48:57;;;;;;;13.10;9.60;;;;;;;9.79;89.46;97912.23;109979;1250;60081;-72
2022/05/10 02:51:27;;;;;;;11.70;9.70;;;;;;;9.80;89.37;97909.09;110174;1249;71517;-71
2022/05/10 02:53:57;;;;;;;10.30;8.60;;;;;;;9.80;89.70;97908.89;110015;1250;68117;-69
2022/05/10 02:56:28;;;;;;;13.00;9.10;;;;;;;9.79;89.12;97912.92;109939;1250;68952;-69
2022/05/10 02:59:03;;;;;;;13.10;10.40;;;;;;;9.80;89.43;97917.44;110053;1249;59648;-72
2022/05/10 03:01:51;;;;;;;14.00;11.00;;;;;;;9.80;89.79;97928.20;110177;1249;59665;-69
2022/05/10 03:04:23;;;;;;;11.80;8.60;;;;;;;9.81;89.88;97924.48;110166;1248;70735;-73
2022/05/10 03:06:54;;;;;;;13.40;10.30;;;;;;;9.84;89.07;97928.65;110202;1249;67810;-69
2022/05/10 03:09:23;;;;;;;;;;;;;;;9.86;88.80;97925.96;109937;1250;69410;-70
2022/05/10 03:11:53;;;;;;;10.80;7.80;;;;;;;9.83;87.96;97925.24;109953;1250;59779;-71
2022/05/10 03:14:23;;;;;;;15.00;10.40;;;;;;;9.79;87.97;97926.70;109997;1249;59696;-70
2022/05/10 03:16:52;;;;;;;14.00;9.00;;;;;;;9.76;88.21;97923.61;109700;1250;71584;-70
2022/05/10 03:19:23;;;;;;;11.60;9.20;;;;;;;9.75;87.85;97927.33;110086;1250;67782;-68
2022/05/10 03:21:53;;;;;;;10.90;9.30;;;;;;;9.74;87.80;97923.38;110105;1250;69423;-71
2022/05/10 03:24:23;;;;;;;10.70;7.60;;;;;;;9.73;86.91;97918.95;110125;1250;59719;-69
2022/05/10 03:26:53;;;;;;;11.00;7.60;;;;;;;9.73;87.04;97921.04;109950;1250;59716;-70
2022/05/10 03:29:25;;;;;;;11.90;7.60;;;;;;;9.73;86.19;97923.92;109807;1250;71517;-70
2022/05/10 03:31:57;;;;;;;10.10;8.10;;;;;;;9.75;86.32;97921.05;109803;1250;68593;-67
2022/05/10 03:37:15;;;;;;;9.70;7.60;;;;;;;9.79;87.67;97916.94;110052;1249;59757;-69
2022/05/10 03:39:44;;;;;;;15.40;10.60;;;;;;;9.84;85.24;97912.29;109795;1251;59777;-69
2022/05/10 03:42:20;;;;;;;7.20;5.80;;;;;;;9.88;85.04;97911.36;110178;1248;70745;-70
2022/05/10 03:44:52;;;;;;;9.90;6.50;;;;;;;9.92;84.55;97911.77;109847;1249;68619;-69
2022/05/10 03:47:24;;;;;;;9.20;7.50;;;;;;;9.97;84.67;97911.47;110190;1249;68682;-68
2022/05/10 03:49:54;;;;;;;11.30;7.30;;;;;;;10.00;84.87;97914.63;110117;1250;59644;-70
2022/05/10 03:52:24;;;;;;;8.50;6.70;;;;;;;10.02;84.48;97914.46;109951;1250;59629;-71
2022/05/10 03:54:54;;;;;;;10.60;7.70;;;;;;;10.06;84.50;97914.08;109867;1250;72772;-70
2022/05/10 03:57:23;;;;;;;15.20;11.50;;;;;;;10.09;84.94;97917.17;109923;1250;68858;-70
2022/05/10 03:59:53;;;;;;;15.00;12.30;;;;;;;10.13;84.13;97917.45;109957;1249;69524;-70
2022/05/10 04:02:22;;;;;;;13.20;10.10;;;;;;;10.16;84.14;97917.08;109851;1250;59719;-70
2022/05/10 04:04:52;;;;;;;11.90;10.00;;;;;;;10.21;84.00;97916.96;109819;1248;59730;-70
2022/05/10 04:07:21;;;;;;;9.70;7.70;;;;;;;10.26;83.78;97914.58;110159;1249;71609;-70
2022/05/10 04:09:51;;;;;;;10.40;7.80;;;;;;;10.31;83.75;97916.87;110043;1250;67637;-69
2022/05/10 04:12:20;;;;;;;13.60;8.60;;;;;;;10.36;83.67;97920.42;109976;1250;68390;-69
2022/05/10 04:14:50;;;;;;;11.10;8.70;;;;;;;10.40;85.60;97923.45;110134;1249;59713;-70
2022/05/10 04:17:19;;;;;;;12.60;9.80;;;;;;;10.45;86.75;97922.79;110176;1248;59744;-70
2022/05/10 04:19:48;;;;;;;13.20;8.40;;;;;;;10.51;86.78;97926.92;110136;1249;71584;-69
2022/05/10 04:22:17;;;;;;;9.90;8.80;;;;;;;10.56;86.87;97927.13;110148;1248;68923;-68
2022/05/10 04:25:08;;;;;;;;;;;;;;;10.62;86.53;97929.48;109997;1250;69510;-71
2022/05/10 04:27:38;;;;;;;9.50;8.10;;;;;;;10.68;86.31;97932.09;109877;1248;59680;-69
2022/05/10 04:30:08;;;;;;;10.70;7.90;;;;;;;10.75;86.25;97932.36;109940;1250;59715;-70
2022/05/10 04:32:38;;;;;;;;;;;;;;;10.84;85.87;97932.27;109856;1250;71429;-71
2022/05/10 04:35:07;;;;;;;10.00;7.60;;;;;;;10.94;85.88;97934.92;110014;1250;67837;-69
2022/05/10 04:37:38;;;;;;;8.20;6.80;;;;;;;11.04;85.28;97932.20;110022;1250;69581;-70
2022/05/10 04:42:56;;;;;;;7.70;6.90;;;;;;;11.22;84.64;97932.91;110185;1249;59672;-70
2022/05/10 04:45:25;;;;;;;10.40;7.50;;;;;;;11.28;84.35;97934.56;110037;1250;70971;-68
2022/05/10 04:47:54;;;;;;;10.90;9.00;;;;;;;11.33;83.69;97934.77;110076;1250;68611;-68
2022/05/10 04:50:23;;;;;;;10.30;7.80;;;;;;;11.35;83.27;97937.09;109969;1249;69442;-70
2022/05/10 04:52:52;;;;;;;8.70;7.20;;;;;;;11.39;82.84;97934.54;110122;1249;59587;-69
2022/05/10 04:55:22;;;;;;;8.00;6.10;;;;;;;11.43;82.94;97932.66;110185;1249;59754;-68
2022/05/10 04:57:50;;;;;;;9.70;7.20;;;;;;;11.52;82.94;97931.73;110194;1249;70828;-70
2022/05/10 05:00:23;;;;;;;12.80;8.60;;;;;;;11.60;83.30;97934.30;109999;1250;69152;-69
2022/05/10 05:02:52;;;;;;;11.60;8.60;;;;;;;11.63;82.54;97937.39;110173;1249;68647;-73
2022/05/10 05:05:22;;;;;;;11.40;8.90;;;;;;;11.64;82.63;97936.66;109920;1250;59699;-68
2022/05/10 05:07:51;;;;;;;10.00;8.10;;;;;;;11.66;82.88;97940.39;109928;1250;59691;-70
2022/05/10 05:10:21;;;;;;;10.70;8.10;;;;;;;11.68;83.86;97938.44;109945;1250;70848;-70
2022/05/10 05:12:50;;;;;;;11.10;7.70;;;;;;;11.77;84.66;97940.35;110009;1249;68412;-69
2022/05/10 05:15:20;;;;;;;9.20;7.30;;;;;;;11.86;84.96;97942.84;109832;1250;69564;-70
2022/05/10 05:17:50;;;;;;;11.60;8.20;;;;;;;11.97;83.85;97941.73;110023;1250;59706;-73
2022/05/10 05:20:19;;;;;;;10.40;8.70;;;;;;;12.07;84.88;97940.21;109931;1250;59675;-70
2022/05/10 05:22:50;;;;;;;12.10;9.70;;;;;;;12.15;83.87;97942.18;109942;1250;71621;-68
2022/05/10 05:25:19;;;;;;;10.70;7.70;;;;;;;12.22;83.28;97942.08;109888;1250;68727;-71
2022/05/10 05:27:48;;;;;;;13.70;8.70;;;;;;;12.31;82.53;97941.98;109722;1251;69027;-71
2022/05/10 05:30:17;;;;;;;8.90;7.40;;;;;;;12.37;81.70;97945.05;109997;1250;59716;-68
2022/05/10 05:32:46;;;;;;;9.60;8.10;;;;;;;12.45;81.62;97945.30;110122;1249;59726;-74
2022/05/10 05:35:15;;;;;;;11.90;9.40;;;;;;;12.52;81.47;97948.47;109832;1250;69798;-71
2022/05/10 05:37:44;;;;;;;13.20;11.00;;;;;;;12.58;81.27;97950.17;110070;1249;68133;-68
2022/05/10 05:40:16;;;;;;;11.80;9.20;;;;;;;12.61;81.41;97948.70;110114;1250;69479;-68
2022/05/10 05:42:49;;;;;;;12.30;9.30;;;;;;;12.67;80.78;97950.17;110051;1250;59725;-69
2022/05/10 05:45:21;;;;;;;9.50;7.90;;;;;;;12.70;80.54;97950.79;110179;1249;60155;-70
2022/05/10 05:47:51;;;;;;;10.00;8.40;;;;;;;12.73;80.30;97954.64;110052;1250;71601;-69
2022/05/10 05:50:23;;;;;;;13.50;9.70;;;;;;;12.70;80.16;97952.05;110060;1250;68986;-68
2022/05/10 05:52:58;;;;;;;13.50;9.80;;;;;;;12.79;79.89;97953.17;110219;1247;68947;-69
2022/05/10 05:55:29;;;;;;;9.50;8.00;;;;;;;12.83;80.88;97956.23;109877;1250;60150;-70
2022/05/10 05:57:58;;;;;;;8.40;7.50;;;;;;;12.97;80.78;97953.77;109775;1251;59726;-69
2022/05/10 06:00:29;;;;;;;10.60;8.00;;;;;;;13.15;79.91;97955.02;109852;1250;71095;-69
2022/05/10 06:02:58;;;;;;;9.40;6.90;;;;;;;13.27;78.93;97952.25;109971;1250;67929;-68
2022/05/10 06:05:28;;;;;;;10.10;7.60;;;;;;;13.45;78.32;97956.38;110101;1249;69404;-68
2022/05/10 06:07:58;;;;;;;10.60;8.60;;;;;;;13.63;77.27;97953.23;109922;1250;59709;-68
2022/05/10 06:10:27;;;;;;;8.70;7.30;;;;;;;13.76;76.60;97949.91;110017;1250;59679;-68
2022/05/10 06:13:01;;;;;;;8.90;7.70;;;;;;;13.97;76.29;97950.77;109919;1250;72036;-68
2022/05/10 06:15:31;;;;;;;7.20;5.80;;;;;;;14.13;74.86;97945.25;109907;1250;67712;-69
2022/05/10 06:18:03;;;;;;;10.40;6.90;;;;;;;14.41;75.99;97947.65;109827;1250;69097;-69
2022/05/10 06:20:33;;;;;;;9.30;8.30;;;;;;;14.67;74.26;97950.08;109933;1250;59732;-70
2022/05/10 06:23:03;;;;;;;8.60;7.50;;;;;;;14.90;74.30;97950.34;109787;1251;59647;-69
2022/05/10 06:25:35;;;;;;;9.70;7.90;;;;;;;15.18;73.69;97950.83;109873;1249;71404;-69
2022/05/10 06:28:04;;;;;;;7.60;6.70;;;;;;;15.54;74.18;97952.44;110002;1250;67829;-69
2022/05/10 06:30:34;;;;;;;8.90;7.70;;;;;;;15.86;72.34;97950.75;109906;1249;68966;-68
2022/05/10 06:33:03;;;;;;;8.50;7.60;;;;;;;16.29;71.19;97948.96;109949;1250;59751;-68
2022/05/10 06:35:33;;;;;;;;;;;;;;;16.61;70.51;97951.64;109920;1250;59668;-67
2022/05/10 06:38:27;;;;;;;9.50;7.10;;;;;;;16.80;67.37;97948.91;109824;1251;71795;-65
2022/05/10 06:41:03;;;;;;;5.50;4.90;;;;;;;16.97;66.51;97947.83;109746;1249;68567;-71
2022/05/10 06:43:36;;;;;;;7.60;5.80;;;;;;;17.01;64.11;97950.55;109913;1249;69407;-68
2022/05/10 06:46:18;;;;;;;5.30;4.80;;;;;;;17.15;64.02;97949.73;109643;1250;59732;-69
2022/05/10 06:48:48;;;;;;;5.10;4.60;;;;;;;17.38;63.27;97952.18;110034;1250;59600;-68
2022/05/10 06:51:18;;;;;;;5.60;5.10;;;;;;;17.55;62.25;97950.96;109982;1250;71019;-67
2022/05/10 06:53:49;;;;;;;6.50;4.10;;;;;;;17.70;60.59;97947.72;109982;1250;68485;-70
2022/05/10 06:56:17;;;;;;;;;;;;;;;17.91;59.88;97945.58;109989;1250;69008;-69
2022/05/10 06:58:47;;;;;;;4.10;3.60;;;;;;;18.08;58.90;97946.10;110221;1248;59647;-69
2022/05/10 07:01:16;;;;;;;;;;;;;;;18.23;58.58;97943.39;109871;1250;59596;-69
2022/05/10 07:03:50;;;;;;;3.20;2.90;;;;;;;18.39;57.71;97942.39;110052;1250;69596;-68
2022/05/10 07:06:23;;;;;;;3.90;3.30;;;;;;;18.45;55.53;97939.50;109925;1249;68763;-72
2022/05/10 07:08:52;;;;;;;4.00;3.00;;;;;;;18.65;56.72;97942.70;110171;1248;69388;-71
2022/05/10 07:11:21;;;;;;;3.60;3.30;;;;;;;18.82;55.40;97940.04;109964;1250;59681;-69
2022/05/10 07:13:50;;;;;;;4.50;3.80;;;;;;;18.81;52.83;97940.45;109841;1250;59767;-71
2022/05/10 07:16:19;;;;;;;4.10;2.80;;;;;;;18.91;51.80;97939.82;109912;1250;71587;-65
2022/05/10 07:18:48;;;;;;;4.60;3.30;;;;;;;18.96;50.49;97943.21;110170;1248;67911;-69
2022/05/10 07:21:17;;;;;;;3.90;3.20;;;;;;;19.32;51.38;97940.45;110109;1250;68053;-70
2022/05/10 07:23:46;;;;;;;5.10;3.10;;;;;;;19.91;48.92;97937.22;109943;1250;59764;-69
2022/05/10 07:26:15;;;;;;;5.30;3.10;;;;;;;20.45;48.14;97938.00;109873;1250;60149;-69
2022/05/10 07:28:44;;;;;;;4.20;3.50;;;;;;;20.74;47.44;97938.80;109827;1250;71592;-67
2022/05/10 07:31:15;;;;;;;4.60;3.40;;;;;;;21.04;46.99;97938.38;110130;1249;67845;-70
2022/05/10 07:33:44;;;;;;;;;;;;;;;21.52;46.30;97939.61;109910;1250;69486;-67
2022/05/10 07:36:25;;;;;;;3.00;2.70;;;;;;;21.74;44.58;97938.48;109796;1252;60155;-71
2022/05/10 07:38:54;;;;;;;3.60;2.00;;;;;;;21.73;42.35;97935.30;109979;1249;59739;-69
2022/05/10 07:41:23;;;;;;;4.50;2.50;;;;;;;22.11;43.20;97932.61;109987;1250;70848;-68
2022/05/10 07:43:52;;;;;;;3.20;2.90;;;;;;;22.52;41.74;97932.96;110011;1250;67839;-72
2022/05/10 07:46:22;;;;;;;;;;;;;;;22.62;41.25;97937.97;110032;1250;69421;-70
2022/05/10 07:48:51;;;;;;;3.00;2.50;;;;;;;22.64;41.21;97934.55;109907;1250;59685;-68
2022/05/10 07:51:21;;;;;;;3.10;2.60;;;;;;;23.15;41.99;97938.65;110203;1250;59721;-70
2022/05/10 07:53:51;;;;;;;3.30;3.00;;;;;;;23.13;39.37;97935.14;109929;1250;71083;-69
2022/05/10 07:56:20;;;;;;;2.90;2.50;;;;;;;23.32;39.40;97933.45;110170;1250;67809;-70
2022/05/10 07:58:54;;;;;;;4.10;2.40;;;;;;;23.04;39.43;97932.70;110048;1250;69732;-70
2022/05/10 08:01:26;;;;;;;2.70;2.30;;;;;;;23.58;39.90;97931.34;109815;1250;59659;-69
2022/05/10 08:03:56;;;;;;;3.10;2.50;;;;;;;24.31;39.59;97929.36;109847;1250;59725;-70
2022/05/10 08:06:26;;;;;;;3.10;2.60;;;;;;;24.41;37.94;97931.55;109951;1250;71636;-70
2022/05/10 08:08:56;;;;;;;4.00;2.30;;;;;;;24.62;37.26;97933.38;109919;1250;68723;-72
2022/05/10 08:11:25;;;;;;;3.20;2.10;;;;;;;24.63;36.61;97932.80;109928;1250;69240;-71
2022/05/10 08:13:53;;;;;;;4.50;2.40;;;;;;;24.83;36.10;97935.14;109951;1249;59683;-71
2022/05/10 08:16:25;;;;;;;5.70;2.60;;;;;;;25.08;36.58;97931.98;109988;1250;59686;-72
2022/05/10 08:18:54;;;;;;;2.90;2.60;;;;;;;25.21;37.09;97924.80;109881;1249;70806;-70
2022/05/10 08:21:23;;;;;;;3.10;2.40;;;;;;;25.44;35.92;97927.52;109780;1250;69174;-71
2022/05/10 08:23:55;;;;;;;6.90;2.70;;;;;;;25.20;34.51;97923.06;109913;1250;67680;-73
2022/05/10 08:26:24;;;;;;;3.10;2.20;;;;;;;24.84;35.18;97921.95;109963;1248;59745;-71
2022/05/10 08:28:53;;;;;;;3.10;2.40;;;;;;;24.91;35.71;97917.88;109928;1250;59747;-74
2022/05/10 08:31:26;;;;;;;2.40;1.90;;;;;;;25.00;34.99;97917.48;109755;1250;71687;-69
2022/05/10 08:33:55;;;;;;;;;;;;;;;25.57;34.18;97916.22;110006;1250;67584;-72
2022/05/10 08:36:24;;;;;;;2.60;2.30;;;;;;;25.26;33.81;97915.35;109875;1249;69559;-71
2022/05/10 08:38:54;;;;;;;3.10;2.40;;;;;;;24.28;35.51;97912.95;110006;1250;59710;-70
2022/05/10 08:41:42;;;;;;;2.70;2.40;;;;;;;23.69;36.07;97908.27;109900;1251;59648;-71
2022/05/10 08:44:17;;;;;;;4.00;2.10;;;;;;;24.32;36.47;97905.70;109900;1250;71618;-72
2022/05/10 08:46:53;;;;;;;2.50;2.10;;;;;;;25.09;35.01;97908.84;110013;1250;67844;-71
2022/05/10 08:49:34;;;;;;;2.90;2.20;;;;;;;25.34;33.32;97911.13;109926;1250;68498;-70
2022/05/10 08:52:05;;;;;;;3.50;2.30;;;;;;;25.20;33.24;97910.52;109861;1250;59674;-71
2022/05/10 08:54:40;;;;;;;3.00;2.30;;;;;;;24.98;34.31;97908.72;109930;1250;59641;-70
2022/05/10 08:57:32;;;;;;;2.90;2.10;;;;;;;24.77;33.44;97907.69;110113;1249;71574;-71
2022/05/10 09:00:08;;;;;;;2.60;2.40;;;;;;;24.94;33.76;97904.90;109753;1249;68637;-71
2022/05/10 09:02:40;;;;;;;3.60;2.50;;;;;;;24.67;33.26;97901.66;110167;1249;69453;-72
2022/05/10 09:05:34;;;;;;;2.30;2.00;;;;;;;24.45;34.71;97894.67;110171;1249;59740;-72
2022/05/10 09:08:25;;;;;;;2.60;2.10;;;;;;;24.83;34.24;97899.64;110182;1249;59617;-72
2022/05/10 09:11:03;;;;;;;3.10;2.10;;;;;;;25.24;33.43;97901.52;110197;1247;70700;-74
2022/05/10 09:13:34;;;;;;;2.60;2.00;;;;;;;25.32;32.26;97897.41;109872;1250;67447;-71
2022/05/10 09:16:06;;;;;;;2.70;1.80;;;;;;;25.01;32.01;97896.05;109820;1250;69512;-73
2022/05/10 09:18:46;;;;;;;1.80;1.60;;;;;;;24.53;32.63;97890.32;110175;1250;59733;-71
2022/05/10 09:21:32;;;;;;;2.30;1.70;;;;;;;24.56;33.66;97885.17;110051;1250;59700;-72
2022/05/10 09:24:30;;;;;;;3.30;2.40;;;;;;;25.14;34.19;97885.46;110002;1250;71903;-70
2022/05/10 09:27:10;;;;;;;2.50;1.70;;;;;;;25.04;31.32;97883.65;109979;1250;68582;-71
2022/05/10 09:29:47;;;;;;;2.20;1.70;;;;;;;24.89;31.90;97877.72;109957;1247;70175;-73
2022/05/10 09:35:10;;;;;;;3.00;1.90;;;;;;;24.06;34.61;97873.35;110179;1250;59729;-72
2022/05/10 09:37:44;;;;;;;2.90;2.50;;;;;;;23.66;35.26;97872.15;110179;1249;70789;-73
2022/05/10 09:40:27;;;;;;;2.70;2.00;;;;;;;23.50;34.84;97867.70;110105;1250;67825;-71
2022/05/10 09:43:21;;;;;;;3.70;2.50;;;;;;;22.90;36.13;97867.30;110090;1249;69421;-73
2022/05/10 09:46:10;;;;;;;3.20;1.90;;;;;;;22.84;35.79;97871.34;110184;1249;59993;-70
2022/05/10 09:48:42;;;;;;;3.40;1.90;;;;;;;22.74;34.85;97863.82;110162;1248;59659;-69
2022/05/10 09:51:41;;;;;;;3.40;2.50;;;;;;;22.54;35.36;97864.16;109816;1250;71599;-72
2022/05/10 09:54:17;;;;;;;;;;;;;;;22.21;35.50;97861.52;110000;1250;68618;-70
2022/05/10 09:56:51;;;;;;;2.60;2.10;;;;;;;21.97;36.69;97854.95;109378;1250;687039;-69
2022/05/10 09:59:27;;;;;;;3.20;2.40;;;;;;;22.11;37.29;97855.38;109715;1250;59723;-70
2022/05/10 10:02:00;;;;;;;2.70;1.70;;;;;;;22.76;36.88;97854.80;109915;1250;59739;-70
2022/05/10 10:04:38;;;;;;;2.10;1.60;;;;;;;23.81;36.00;97849.41;109932;1250;71577;-70
2022/05/10 10:07:13;;;;;;;3.30;2.00;;;;;;;24.92;33.93;97842.73;110003;1250;68548;-70
2022/05/10 10:09:47;;;;;;;2.30;1.90;;;;;;;25.78;32.92;97835.05;109907;1250;69390;-73
2022/05/10 10:12:41;;;;;;;3.00;2.00;;;;;;;26.25;31.83;97835.36;109936;1250;59729;-71
2022/05/10 10:15:18;;;;;;;2.30;1.80;;;;;;;27.13;31.05;97829.00;109936;1250;59706;-72
2022/05/10 10:18:01;;;;;;;7.20;2.40;;;;;;;27.51;29.84;97823.94;109925;1250;71586;-72
2022/05/10 10:20:49;;;;;;;3.40;2.00;;;;;;;27.24;29.25;97819.91;109958;1250;68075;-71
2022/05/10 10:23:29;;;;;;;2.60;1.80;;;;;;;26.79;29.10;97817.20;109669;1250;69696;-71
2022/05/10 10:26:14;;;;;;;2.40;1.80;;;;;;;26.02;29.48;97812.92;109783;1249;59716;-71
2022/05/10 10:29:26;;;;;;;2.60;1.80;;;;;;;25.08;30.79;97816.96;109689;1251;59615;-70
2022/05/10 10:32:09;;;;;;;3.00;2.10;;;;;;;24.91;31.05;97814.36;109942;1250;71522;-71
2022/05/10 10:34:57;;;;;;;2.30;1.90;;;;;;;25.36;31.93;97808.72;109882;1250;68597;-70
2022/05/10 10:37:40;;;;;;;2.20;1.70;;;;;;;25.83;30.37;97804.38;109712;1251;68635;-72
2022/05/10 10:40:10;;;;;;;2.50;2.10;;;;;;;26.23;30.00;97804.94;109717;1250;59735;-71
2022/05/10 10:42:49;;;;;;;2.20;1.70;;;;;;;26.39;30.50;97803.92;109924;1250;59716;-72
2022/05/10 10:45:30;;;;;;;3.10;2.10;;;;;;;26.81;29.55;97802.11;109956;1250;71561;-71
2022/05/10 10:48:19;;;;;;;2.60;2.00;;;;;;;26.89;28.87;97800.21;109726;1251;68794;-72
2022/05/10 10:50:49;;;;;;;3.10;2.00;;;;;;;27.06;28.61;97796.76;109882;1250;68520;-72
2022/05/10 10:53:25;;;;;;;3.50;2.30;;;;;;;27.23;28.27;97788.39;109896;1250;59750;-71
2022/05/10 10:56:07;;;;;;;3.10;2.20;;;;;;;27.03;29.00;97784.59;109713;1250;59761;-71
2022/05/10 10:59:04;;;;;;;4.00;2.20;;;;;;;26.74;29.63;97786.06;109968;1250;71554;-71
2022/05/10 11:01:44;;;;;;;2.20;1.90;;;;;;;25.86;30.94;97776.48;109952;1250;68567;-70
2022/05/10 11:04:54;;;;;;;2.50;2.30;;;;;;;25.26;31.69;97770.88;109707;1251;68978;-71
2022/05/10 11:07:39;;;;;;;2.50;2.00;;;;;;;24.66;32.46;97773.13;109558;1250;59675;-70
2022/05/10 11:10:46;;;;;;;2.80;1.90;;;;;;;24.47;32.98;97767.32;109912;1250;59745;-70
2022/05/10 11:13:58;;;;;;;3.70;2.20;;;;;;;24.21;33.39;97764.73;109504;1250;71316;-70
2022/05/10 11:16:55;;;;;;;4.00;3.30;;;;;;;24.42;33.06;97759.55;109786;1250;68431;-72
2022/05/10 11:19:46;;;;;;;2.10;1.90;;;;;;;24.52;32.69;97759.36;109857;1250;69474;-69
2022/05/10 11:22:42;;;;;;;3.60;2.40;;;;;;;24.99;31.84;97751.16;109913;1250;59681;-70
2022/05/10 11:25:23;;;;;;;2.80;2.50;;;;;;;25.68;31.32;97744.07;109586;1250;59683;-71
2022/05/10 11:28:33;;;;;;;2.50;2.20;;;;;;;26.17;30.67;97741.98;109943;1250;71365;-71
2022/05/10 11:31:21;;;;;;;3.50;2.30;;;;;;;25.68;31.59;97738.19;109929;1250;67590;-71
2022/05/10 11:33:59;;;;;;;3.80;2.60;;;;;;;24.91;33.86;97742.70;109912;1250;69341;-70
2022/05/10 11:36:32;;;;;;;2.90;2.50;;;;;;;24.50;34.59;97741.25;109959;1249;59769;-71
2022/05/10 11:39:20;;;;;;;2.30;2.10;;;;;;;24.10;35.19;97739.92;109923;1250;59809;-71
2022/05/10 11:42:04;;;;;;;3.20;2.60;;;;;;;23.85;35.48;97733.32;109685;1250;70441;-70
2022/05/10 11:45:11;;;;;;;2.90;2.30;;;;;;;23.67;35.75;97733.07;109883;1250;68792;-69
2022/05/10 11:47:51;;;;;;;3.20;2.30;;;;;;;23.61;36.99;97732.73;109889;1250;69438;-70
2022/05/10 11:53:54;;;;;;;2.70;2.10;;;;;;;24.41;33.42;97724.79;109882;1250;59659;-70
2022/05/10 11:56:40;;;;;;;2.70;2.20;;;;;;;24.24;33.97;97726.27;109900;1250;71688;-69
2022/05/10 11:59:32;;;;;;;3.50;2.20;;;;;;;24.05;34.64;97724.35;109677;1250;67105;-71
2022/05/10 12:02:05;;;;;;;3.20;2.00;;;;;;;24.32;34.41;97722.66;109758;1250;69636;-68
2022/05/10 12:04:44;;;;;;;2.90;2.00;;;;;;;24.73;33.06;97716.58;109930;1250;59760;-72
2022/05/10 12:07:32;;;;;;;2.80;2.00;;;;;;;25.09;32.04;97716.56;109805;1250;59683;-69
2022/05/10 12:10:27;;;;;;;3.20;2.10;;;;;;;25.25;32.09;97713.54;109906;1250;71343;-70
2022/05/10 12:13:08;;;;;;;4.10;2.10;;;;;;;25.46;31.28;97709.08;109968;1250;67679;-70
2022/05/10 12:21:52;;;;;;;2.80;2.20;;;;;;;25.37;29.86;97693.39;110213;1250;59673;-71
2022/05/10 12:24:23;;;;;;;3.30;2.40;;;;;;;25.21;30.71;97689.89;109722;1250;72558;-69
2022/05/10 12:27:03;;;;;;;3.00;1.90;;;;;;;24.89;30.69;97689.39;109923;1250;67050;-71
2022/05/10 12:29:39;;;;;;;3.40;2.10;;;;;;;24.79;31.52;97688.61;109916;1250;68731;-70